Wetterdaten: Woche 08.08.16 - 14.08.16 (KW32)
Datum Zeit Temp. Aussen Temp. o. S. +5cm Feuchte Auss BlattFeu 1 Luftdruck Regen Sonnenschein Regendauer Solar Windben Empfang
08.08.2016 00:00 21,7 C 21,1 C 19,0 C 80 % 0 lf 1019,9 hPa 0,0 l/m 0,00 h 0,07 h 0 W/m 7,3 km/h (2 Bft) 96,35 %
08.08.2016 01:00 21,1 C 20,6 C 18,7 C 84 % 0 lf 1019,4 hPa 0,0 l/m 0,00 h 0,00 h 0 W/m 9,5 km/h (2 Bft) 96,36 %
08.08.2016 02:00 20,6 C 20,5 C 18,8 C 87 % 0 lf 1019,0 hPa 0,0 l/m 0,00 h 0,00 h 0 W/m 15,5 km/h (3 Bft) 96,72 %
08.08.2016 03:00 20,3 C 20,1 C 18,4 C 85 % 0 lf 1018,6 hPa 0,0 l/m 0,00 h 0,00 h 0 W/m 21,5 km/h (4 Bft) 94,73 %
08.08.2016 04:00 19,2 C 18,7 C 16,8 C 82 % 0 lf 1018,3 hPa 0,0 l/m 0,00 h 0,00 h 0 W/m 21,8 km/h (4 Bft) 97,46 %
08.08.2016 05:00 18,1 C 17,8 C 16,0 C 82 % 0 lf 1018,4 hPa 0,0 l/m 0,00 h 0,00 h 15 W/m 21,8 km/h (4 Bft) 95,66 %
08.08.2016 06:00 17,4 C 17,1 C 15,5 C 81 % 0 lf 1018,7 hPa 0,0 l/m 0,63 h 0,00 h 37 W/m 18,9 km/h (3 Bft) 96,72 %
08.08.2016 07:00 16,7 C 17,0 C 15,2 C 84 % 0 lf 1018,8 hPa 0,0 l/m 0,97 h 0,00 h 149 W/m 20,5 km/h (4 Bft) 94,94 %
08.08.2016 08:00 16,9 C 17,5 C 16,4 C 84 % 0 lf 1019,0 hPa 0,0 l/m 0,00 h 0,00 h 106 W/m 21,7 km/h (4 Bft) 97,51 %
08.08.2016 09:00 17,2 C 18,2 C 17,2 C 85 % 0 lf 1019,1 hPa 0,0 l/m 0,00 h 0,00 h 163 W/m 20,8 km/h (4 Bft) 96,87 %
08.08.2016 10:00 17,4 C 18,4 C 17,5 C 85 % 0 lf 1019,2 hPa 0,0 l/m 0,00 h 0,00 h 172 W/m 19,0 km/h (3 Bft) 94,24 %
08.08.2016 11:00 17,9 C 20,0 C 19,0 C 85 % 0 lf 1019,3 hPa 0,0 l/m 0,30 h 0,00 h 287 W/m 21,5 km/h (4 Bft) 96,66 %
08.08.2016 12:00 18,0 C 18,6 C 17,3 C 84 % 0 lf 1019,4 hPa 0,0 l/m 0,00 h 0,00 h 118 W/m 19,0 km/h (3 Bft) 98,01 %
08.08.2016 13:00 18,3 C 20,0 C 19,1 C 85 % 1 lf 1019,5 hPa 0,0 l/m 0,03 h 0,10 h 291 W/m 17,2 km/h (3 Bft) 93,16 %
08.08.2016 14:00 20,3 C 26,3 C 24,7 C 78 % 0 lf 1019,4 hPa 0,0 l/m 0,97 h 0,00 h 660 W/m 23,9 km/h (4 Bft) 97,72 %
08.08.2016 15:00 21,1 C 23,6 C 22,2 C 72 % 0 lf 1019,2 hPa 0,0 l/m 0,23 h 0,07 h 329 W/m 19,3 km/h (3 Bft) 97,09 %
08.08.2016 16:00 21,4 C 24,4 C 23,4 C 71 % 0 lf 1019,0 hPa 0,0 l/m 0,33 h 0,17 h 342 W/m 16,2 km/h (3 Bft) 94,09 %
08.08.2016 17:00 21,9 C 25,0 C 22,0 C 65 % 0 lf 1018,8 hPa 0,0 l/m 0,77 h 0,00 h 463 W/m 20,1 km/h (4 Bft) 97,16 %
08.08.2016 18:00 21,5 C 21,8 C 19,4 C 62 % 0 lf 1019,0 hPa 0,0 l/m 0,83 h 0,00 h 291 W/m 19,9 km/h (4 Bft) 96,08 %
08.08.2016 19:00 20,2 C 20,4 C 18,2 C 60 % 0 lf 1019,3 hPa 0,0 l/m 0,97 h 0,00 h 179 W/m 16,4 km/h (3 Bft) 95,80 %
08.08.2016 20:00 19,1 C 17,9 C 15,8 C 63 % 0 lf 1019,6 hPa 0,0 l/m 0,77 h 0,00 h 47 W/m 10,4 km/h (2 Bft) 95,15 %
08.08.2016 21:00 17,3 C 15,1 C 13,3 C 69 % 0 lf 1020,0 hPa 0,0 l/m 0,00 h 0,00 h 19 W/m 3,5 km/h (1 Bft) 95,93 %
08.08.2016 22:00 15,8 C 14,1 C 12,4 C 75 % 0 lf 1020,0 hPa 0,0 l/m 0,00 h 0,00 h 0 W/m 0,0 km/h (0 Bft) 95,94 %
08.08.2016 23:00 14,7 C 13,1 C 11,5 C 81 % 0 lf 1020,0 hPa 0,0 l/m 0,00 h 0,00 h 0 W/m 0,0 km/h (0 Bft) 97,29 %
09.08.2016 00:00 13,8 C 13,4 C 12,0 C 86 % 0 lf 1020,0 hPa 0,0 l/m 0,00 h 0,00 h 0 W/m 0,0 km/h (0 Bft) 93,72 %
09.08.2016 01:00 13,6 C 13,3 C 12,2 C 88 % 0 lf 1020,0 hPa 0,0 l/m 0,00 h 0,00 h 0 W/m 0,0 km/h (0 Bft) 96,58 %
09.08.2016 02:00 13,6 C 13,3 C 12,2 C 88 % 0 lf 1019,9 hPa 0,0 l/m 0,00 h 0,00 h 0 W/m 0,0 km/h (0 Bft) 98,57 %
09.08.2016 03:00 13,6 C 13,4 C 12,2 C 88 % 0 lf 1019,8 hPa 0,0 l/m 0,00 h 0,00 h 0 W/m 0,0 km/h (0 Bft) 93,66 %
09.08.2016 04:00 13,5 C 12,9 C 11,8 C 88 % 0 lf 1019,7 hPa 0,0 l/m 0,00 h 0,00 h 0 W/m 0,0 km/h (0 Bft) 95,94 %
09.08.2016 05:00 13,4 C 13,3 C 12,0 C 89 % 0 lf 1019,8 hPa 0,0 l/m 0,00 h 0,03 h 16 W/m 7,5 km/h (2 Bft) 97,44 %
09.08.2016 06:00 13,2 C 12,8 C 11,5 C 89 % 1 lf 1019,8 hPa 0,0 l/m 0,60 h 0,00 h 29 W/m 8,4 km/h (2 Bft) 95,50 %
09.08.2016 07:00 13,0 C 13,6 C 12,1 C 89 % 0 lf 1020,2 hPa 0,0 l/m 1,00 h 0,00 h 174 W/m 13,1 km/h (3 Bft) 96,60 %
09.08.2016 08:00 13,8 C 15,8 C 13,6 C 84 % 0 lf 1020,4 hPa 0,0 l/m 0,93 h 0,00 h 292 W/m 12,0 km/h (2 Bft) 96,25 %
09.08.2016 09:00 15,7 C 24,2 C 14,3 C 78 % 0 lf 1020,7 hPa 0,0 l/m 1,00 h 0,00 h 495 W/m 12,8 km/h (3 Bft) 93,72 %
09.08.2016 10:00 17,9 C 27,1 C 21,8 C 70 % 0 lf 1021,0 hPa 0,0 l/m 1,00 h 0,00 h 649 W/m 18,3 km/h (3 Bft) 99,00 %
09.08.2016 11:00 19,1 C 26,5 C 22,0 C 67 % 0 lf 1021,0 hPa 0,0 l/m 0,77 h 0,00 h 667 W/m 20,8 km/h (4 Bft) 95,07 %
09.08.2016 12:00 19,1 C 23,3 C 19,9 C 66 % 0 lf 1020,8 hPa 0,0 l/m 0,47 h 0,17 h 440 W/m 16,9 km/h (3 Bft) 96,03 %
09.08.2016 13:00 20,7 C 28,4 C 22,1 C 61 % 0 lf 1020,6 hPa 0,0 l/m 0,80 h 0,00 h 738 W/m 17,1 km/h (3 Bft) 97,51 %
09.08.2016 14:00 19,1 C 19,4 C 18,2 C 63 % 0 lf 1021,1 hPa 0,0 l/m 0,00 h 0,00 h 217 W/m 28,6 km/h (4 Bft) 94,09 %
09.08.2016 15:00 16,9 C 18,5 C 17,5 C 73 % 0 lf 1021,3 hPa 0,0 l/m 0,00 h 0,00 h 245 W/m 17,8 km/h (3 Bft) 97,65 %
09.08.2016 16:00 17,2 C 21,2 C 18,9 C 71 % 0 lf 1021,2 hPa 0,0 l/m 0,80 h 0,00 h 394 W/m 16,4 km/h (3 Bft) 95,44 %
09.08.2016 17:00 17,1 C 17,2 C 15,1 C 70 % 8 lf 1021,3 hPa 0,0 l/m 0,00 h 0,30 h 101 W/m 17,6 km/h (3 Bft) 96,08 %
09.08.2016 18:00 15,0 C 12,9 C 12,1 C 80 % 15 lf 1021,6 hPa 0,4 l/m 0,00 h 0,63 h 69 W/m 6,9 km/h (2 Bft) 96,23 %
09.08.2016 19:00 14,2 C 13,5 C 12,5 C 87 % 15 lf 1021,5 hPa 0,0 l/m 0,27 h 0,13 h 91 W/m 5,2 km/h (1 Bft) 96,72 %
09.08.2016 20:00 14,1 C 13,2 C 11,9 C 89 % 3 lf 1021,4 hPa 0,0 l/m 0,93 h 0,00 h 58 W/m 6,6 km/h (2 Bft) 95,58 %
09.08.2016 21:00 13,5 C 12,4 C 11,5 C 90 % 8 lf 1021,6 hPa 1,4 l/m 0,00 h 0,43 h 20 W/m 7,1 km/h (2 Bft) 95,02 %
09.08.2016 22:00 12,9 C 11,7 C 10,8 C 92 % 15 lf 1021,6 hPa 0,0 l/m 0,00 h 0,13 h 0 W/m 5,6 km/h (1 Bft) 95,59 %
09.08.2016 23:00 12,0 C 10,6 C 10,0 C 92 % 15 lf 1021,4 hPa 0,0 l/m 0,00 h 0,00 h 0 W/m 4,6 km/h (1 Bft) 96,08 %
10.08.2016 00:00 11,5 C 10,5 C 10,0 C 93 % 15 lf 1021,2 hPa 0,0 l/m 0,00 h 0,00 h 0 W/m 2,2 km/h (1 Bft) 96,42 %
10.08.2016 01:00 11,3 C 10,6 C 10,0 C 94 % 15 lf 1020,8 hPa 0,0 l/m 0,00 h 0,00 h 0 W/m 3,8 km/h (1 Bft) 95,73 %
10.08.2016 02:00 11,2 C 10,6 C 10,0 C 95 % 15 lf 1020,6 hPa 0,0 l/m 0,00 h 0,00 h 0 W/m 4,1 km/h (1 Bft) 94,58 %
10.08.2016 03:00 11,1 C 10,6 C 10,0 C 95 % 15 lf 1020,5 hPa 0,0 l/m 0,00 h 0,00 h 0 W/m 2,1 km/h (1 Bft) 96,23 %
10.08.2016 04:00 11,1 C 10,7 C 10,0 C 96 % 15 lf 1020,4 hPa 0,0 l/m 0,00 h 0,07 h 0 W/m 6,5 km/h (2 Bft) 98,38 %
10.08.2016 05:00 11,2 C 10,6 C 10,0 C 96 % 15 lf 1020,2 hPa 0,8 l/m 0,00 h 0,77 h 16 W/m 5,1 km/h (1 Bft) 93,31 %
10.08.2016 06:00 11,2 C 10,6 C 10,0 C 96 % 15 lf 1020,2 hPa 0,4 l/m 0,00 h 0,63 h 20 W/m 4,9 km/h (1 Bft) 97,12 %
10.08.2016 07:00 11,2 C 11,1 C 10,1 C 96 % 15 lf 1020,3 hPa 0,4 l/m 0,00 h 0,52 h 53 W/m 5,3 km/h (1 Bft) 95,82 %
10.08.2016 08:00 11,6 C 12,4 C 11,2 C 97 % 15 lf 1020,7 hPa 0,0 l/m 0,37 h 0,00 h 183 W/m 7,5 km/h (2 Bft) 95,72 %
10.08.2016 09:00 12,4 C 14,7 C 12,5 C 97 % 13 lf 1021,0 hPa 0,0 l/m 0,57 h 0,03 h 273 W/m 8,7 km/h (2 Bft) 97,22 %
10.08.2016 10:00 14,0 C 22,1 C 16,8 C 89 % 0 lf 1021,2 hPa 0,0 l/m 1,00 h 0,00 h 503 W/m 10,5 km/h (2 Bft) 95,58 %
10.08.2016 11:00 16,0 C 23,8 C 19,1 C 74 % 0 lf 1021,2 hPa 0,0 l/m 0,87 h 0,00 h 544 W/m 13,5 km/h (3 Bft) 94,95 %
10.08.2016 12:00 17,4 C 26,4 C 20,1 C 65 % 0 lf 1021,2 hPa 0,0 l/m 0,63 h 0,00 h 665 W/m 12,4 km/h (3 Bft) 97,91 %
10.08.2016 13:00 18,3 C 23,9 C 18,4 C 62 % 1 lf 1021,0 hPa 0,0 l/m 0,50 h 0,23 h 573 W/m 14,6 km/h (3 Bft) 94,52 %
10.08.2016 14:00 17,7 C 24,9 C 21,5 C 62 % 0 lf 1021,0 hPa 0,0 l/m 0,83 h 0,03 h 762 W/m 16,8 km/h (3 Bft) 96,43 %
10.08.2016 15:00 15,9 C 17,3 C 15,3 C 69 % 3 lf 1021,2 hPa 0,2 l/m 0,13 h 0,20 h 247 W/m 18,5 km/h (3 Bft) 96,94 %
10.08.2016 16:00 15,1 C 17,3 C 13,7 C 77 % 8 lf 1021,3 hPa 0,2 l/m 0,20 h 0,20 h 267 W/m 10,5 km/h (2 Bft) 94,80 %
10.08.2016 17:00 15,1 C 18,2 C 14,9 C 75 % 0 lf 1021,6 hPa 0,0 l/m 0,70 h 0,00 h 386 W/m 9,2 km/h (2 Bft) 96,65 %
10.08.2016 18:00 15,5 C 16,3 C 14,4 C 76 % 4 lf 1021,7 hPa 0,0 l/m 0,67 h 0,37 h 279 W/m 12,0 km/h (2 Bft) 96,73 %
10.08.2016 19:00 14,8 C 15,2 C 13,7 C 76 % 0 lf 1021,9 hPa 0,0 l/m 0,37 h 0,00 h 134 W/m 9,3 km/h (2 Bft) 94,02 %
10.08.2016 20:00 14,3 C 13,7 C 12,3 C 76 % 1 lf 1022,3 hPa 0,0 l/m 0,67 h 0,00 h 50 W/m 7,3 km/h (2 Bft) 95,87 %
10.08.2016 21:00 13,5 C 11,8 C 10,3 C 78 % 1 lf 1022,7 hPa 0,0 l/m 0,00 h 0,00 h 22 W/m 4,3 km/h (1 Bft) 97,08 %
10.08.2016 22:00 12,0 C 10,2 C 9,1 C 83 % 3 lf 1023,1 hPa 0,0 l/m 0,00 h 0,00 h 0 W/m 5,9 km/h (2 Bft) 95,30 %
10.08.2016 23:00 10,8 C 9,5 C 8,6 C 86 % 3 lf 1023,2 hPa 0,0 l/m 0,00 h 0,00 h 5 W/m 4,4 km/h (1 Bft) 95,38 %
11.08.2016 00:00 10,2 C 9,4 C 8,5 C 88 % 3 lf 1023,2 hPa 0,0 l/m 0,00 h 0,00 h 5 W/m 5,9 km/h (2 Bft) 96,79 %
11.08.2016 01:00 9,9 C 9,4 C 8,0 C 90 % 7 lf 1023,3 hPa 0,0 l/m 0,00 h 0,00 h 5 W/m 7,6 km/h (2 Bft) 93,95 %
11.08.2016 02:00 9,5 C 8,9 C 7,6 C 91 % 12 lf 1023,0 hPa 0,0 l/m 0,00 h 0,00 h 0 W/m 6,8 km/h (2 Bft) 98,83 %
11.08.2016 03:00 9,0 C 8,1 C 7,0 C 92 % 14 lf 1023,0 hPa 0,0 l/m 0,00 h 0,00 h 5 W/m 5,9 km/h (2 Bft) 95,77 %
11.08.2016 04:00 8,4 C 7,7 C 6,7 C 93 % 15 lf 1023,0 hPa 0,0 l/m 0,00 h 0,00 h 5 W/m 6,8 km/h (2 Bft) 93,99 %
11.08.2016 05:00 8,3 C 7,8 C 6,7 C 94 % 15 lf 1022,9 hPa 0,0 l/m 0,00 h 0,00 h 5 W/m 9,2 km/h (2 Bft) 97,24 %
11.08.2016 06:00 8,5 C 8,6 C 7,7 C 95 % 15 lf 1022,8 hPa 0,0 l/m 0,33 h 0,00 h 20 W/m 10,3 km/h (2 Bft) 97,26 %
11.08.2016 07:00 9,0 C 9,6 C 8,3 C 96 % 4 lf 1022,7 hPa 0,0 l/m 0,03 h 0,00 h 58 W/m 9,9 km/h (2 Bft) 95,52 %
11.08.2016 08:00 10,3 C 13,2 C 11,5 C 95 % 1 lf 1022,6 hPa 0,0 l/m 0,83 h 0,00 h 273 W/m 12,3 km/h (3 Bft) 95,32 %
11.08.2016 09:00 12,3 C 14,1 C 13,1 C 88 % 0 lf 1022,4 hPa 0,0 l/m 0,00 h 0,00 h 192 W/m 13,2 km/h (3 Bft) 96,81 %
11.08.2016 10:00 14,2 C 18,2 C 16,3 C 83 % 0 lf 1021,9 hPa 0,0 l/m 0,80 h 0,00 h 397 W/m 15,5 km/h (3 Bft) 96,05 %
11.08.2016 11:00 16,1 C 18,0 C 16,9 C 77 % 0 lf 1021,5 hPa 0,0 l/m 0,27 h 0,20 h 285 W/m 20,1 km/h (4 Bft) 95,35 %
11.08.2016 12:00 16,4 C 18,0 C 16,7 C 76 % 0 lf 1021,1 hPa 0,0 l/m 0,00 h 0,53 h 268 W/m 23,5 km/h (4 Bft) 95,59 %
11.08.2016 13:00 16,6 C 18,0 C 16,6 C 74 % 1 lf 1020,8 hPa 0,0 l/m 0,07 h 0,77 h 277 W/m 27,3 km/h (4 Bft) 96,30 %
11.08.2016 14:00 16,1 C 16,8 C 15,7 C 76 % 1 lf 1020,8 hPa 0,0 l/m 0,00 h 0,30 h 216 W/m 29,5 km/h (5 Bft) 98,08 %
11.08.2016 15:00 15,0 C 14,2 C 12,7 C 83 % 11 lf 1020,8 hPa 0,2 l/m 0,00 h 0,97 h 149 W/m 24,1 km/h (4 Bft) 93,02 %
11.08.2016 16:00 14,1 C 13,3 C 12,3 C 89 % 15 lf 1020,7 hPa 0,6 l/m 0,00 h 1,00 h 137 W/m 20,6 km/h (4 Bft) 96,94 %
11.08.2016 17:00 13,7 C 12,8 C 12,1 C 92 % 15 lf 1020,5 hPa 1,6 l/m 0,00 h 1,00 h 76 W/m 18,4 km/h (3 Bft) 96,64 %
11.08.2016 18:00 13,4 C 12,8 C 12,2 C 95 % 15 lf 1020,2 hPa 0,6 l/m 0,00 h 1,00 h 42 W/m 16,6 km/h (3 Bft) 96,30 %
11.08.2016 19:00 13,4 C 13,0 C 12,2 C 96 % 15 lf 1019,9 hPa 0,8 l/m 0,00 h 1,00 h 28 W/m 15,2 km/h (3 Bft) 94,54 %
11.08.2016 20:00 13,5 C 13,3 C 12,2 C 97 % 15 lf 1019,5 hPa 0,0 l/m 0,00 h 0,23 h 13 W/m 14,0 km/h (3 Bft) 96,49 %
11.08.2016 21:00 13,7 C 13,3 C 12,2 C 97 % 15 lf 1019,6 hPa 0,6 l/m 0,00 h 0,83 h 7 W/m 13,8 km/h (3 Bft) 95,73 %
11.08.2016 22:00 13,9 C 13,8 C 12,7 C 98 % 15 lf 1019,5 hPa 0,2 l/m 0,00 h 0,30 h 0 W/m 13,8 km/h (3 Bft) 97,15 %
11.08.2016 23:00 14,3 C 14,1 C 13,0 C 98 % 15 lf 1019,6 hPa 0,2 l/m 0,00 h 0,83 h 0 W/m 15,4 km/h (3 Bft) 94,73 %
12.08.2016 00:00 14,5 C 14,4 C 13,3 C 99 % 15 lf 1019,5 hPa 0,2 l/m 0,00 h 0,18 h 0 W/m 16,6 km/h (3 Bft) 95,97 %
12.08.2016 01:00 14,7 C 14,4 C 13,3 C 99 % 15 lf 1019,5 hPa 0,2 l/m 0,00 h 0,30 h 0 W/m 16,2 km/h (3 Bft) 98,08 %
12.08.2016 02:00 14,6 C 14,4 C 13,3 C 99 % 15 lf 1019,4 hPa 0,0 l/m 0,00 h 0,00 h 0 W/m 16,9 km/h (3 Bft) 94,38 %
12.08.2016 03:00 14,6 C 14,4 C 13,3 C 99 % 15 lf 1019,5 hPa 0,0 l/m 0,00 h 0,07 h 0 W/m 17,3 km/h (3 Bft) 95,23 %
12.08.2016 04:00 14,8 C 14,4 C 13,3 C 99 % 15 lf 1019,6 hPa 0,0 l/m 0,00 h 0,70 h 0 W/m 17,5 km/h (3 Bft) 97,37 %
12.08.2016 05:00 15,1 C 15,0 C 13,9 C 99 % 15 lf 1019,7 hPa 0,2 l/m 0,00 h 0,43 h 0 W/m 16,4 km/h (3 Bft) 95,80 %
12.08.2016 06:00 15,4 C 15,4 C 13,9 C 99 % 15 lf 1020,1 hPa 0,0 l/m 0,00 h 0,50 h 10 W/m 16,9 km/h (3 Bft) 93,53 %
12.08.2016 07:00 15,6 C 15,6 C 14,3 C 99 % 15 lf 1020,5 hPa 0,0 l/m 0,00 h 0,13 h 24 W/m 17,6 km/h (3 Bft) 97,87 %
12.08.2016 08:00 15,8 C 15,8 C 14,6 C 99 % 15 lf 1021,2 hPa 0,0 l/m 0,00 h 0,20 h 57 W/m 14,7 km/h (3 Bft) 94,88 %
12.08.2016 09:00 16,4 C 17,0 C 16,2 C 99 % 15 lf 1021,5 hPa 0,0 l/m 0,00 h 0,03 h 118 W/m 16,2 km/h (3 Bft) 96,73 %
12.08.2016 10:00 17,5 C 18,9 C 18,5 C 99 % 3 lf 1021,9 hPa 0,0 l/m 0,13 h 0,00 h 221 W/m 15,7 km/h (3 Bft) 95,36 %
12.08.2016 11:00 19,0 C 22,0 C 20,5 C 97 % 1 lf 1022,1 hPa 0,0 l/m 0,40 h 0,00 h 288 W/m 19,3 km/h (3 Bft) 95,37 %
12.08.2016 12:00 19,5 C 21,2 C 20,2 C 91 % 1 lf 1022,5 hPa 0,0 l/m 0,00 h 0,00 h 237 W/m 18,9 km/h (3 Bft) 96,58 %
12.08.2016 13:00 20,2 C 22,3 C 21,1 C 89 % 0 lf 1022,6 hPa 0,0 l/m 0,13 h 0,00 h 270 W/m 20,2 km/h (4 Bft) 96,44 %
12.08.2016 14:00 21,7 C 25,7 C 24,1 C 84 % 0 lf 1022,6 hPa 0,0 l/m 0,80 h 0,00 h 723 W/m 22,7 km/h (4 Bft) 93,67 %
12.08.2016 15:00 22,8 C 26,4 C 25,3 C 80 % 0 lf 1022,8 hPa 0,0 l/m 0,83 h 0,00 h 507 W/m 23,3 km/h (4 Bft) 98,07 %
12.08.2016 16:00 22,5 C 24,2 C 23,1 C 80 % 0 lf 1022,7 hPa 0,0 l/m 0,23 h 0,00 h 276 W/m 19,4 km/h (3 Bft) 96,32 %
12.08.2016 17:00 22,2 C 23,7 C 22,2 C 80 % 0 lf 1022,7 hPa 0,0 l/m 0,43 h 0,00 h 249 W/m 17,5 km/h (3 Bft) 95,05 %
12.08.2016 18:00 22,4 C 23,3 C 21,2 C 80 % 0 lf 1022,6 hPa 0,0 l/m 0,83 h 0,00 h 301 W/m 14,4 km/h (3 Bft) 97,28 %
12.08.2016 19:00 22,1 C 22,3 C 20,4 C 81 % 0 lf 1022,4 hPa 0,0 l/m 0,47 h 0,00 h 119 W/m 12,2 km/h (2 Bft) 95,02 %
12.08.2016 20:00 21,5 C 21,3 C 19,5 C 83 % 0 lf 1022,3 hPa 0,0 l/m 0,77 h 0,00 h 38 W/m 7,9 km/h (2 Bft) 95,57 %
12.08.2016 21:00 20,7 C 19,4 C 16,9 C 84 % 1 lf 1022,4 hPa 0,0 l/m 0,00 h 0,00 h 6 W/m 6,4 km/h (2 Bft) 96,32 %
12.08.2016 22:00 19,4 C 18,5 C 16,2 C 88 % 2 lf 1022,5 hPa 0,0 l/m 0,00 h 0,00 h 5 W/m 8,8 km/h (2 Bft) 95,95 %
12.08.2016 23:00 18,6 C 17,9 C 15,9 C 90 % 2 lf 1022,2 hPa 0,0 l/m 0,00 h 0,00 h 5 W/m 8,7 km/h (2 Bft) 95,44 %
13.08.2016 00:00 18,0 C 17,5 C 15,3 C 91 % 2 lf 1021,9 hPa 0,0 l/m 0,00 h 0,00 h 5 W/m 9,2 km/h (2 Bft) 96,18 %
13.08.2016 01:00 17,4 C 16,6 C 14,4 C 91 % 3 lf 1021,7 hPa 0,0 l/m 0,00 h 0,00 h 5 W/m 8,0 km/h (2 Bft) 95,95 %
13.08.2016 02:00 16,7 C 16,0 C 13,8 C 92 % 11 lf 1021,4 hPa 0,0 l/m 0,00 h 0,00 h 5 W/m 7,6 km/h (2 Bft) 96,73 %
13.08.2016 03:00 16,0 C 15,4 C 13,2 C 94 % 15 lf 1021,1 hPa 0,0 l/m 0,00 h 0,00 h 0 W/m 6,4 km/h (2 Bft) 94,88 %
13.08.2016 04:00 15,7 C 15,5 C 13,5 C 95 % 15 lf 1021,0 hPa 0,0 l/m 0,00 h 0,00 h 0 W/m 9,0 km/h (2 Bft) 86,41 %
13.08.2016 05:00 15,7 C 15,5 C 13,6 C 96 % 15 lf 1020,9 hPa 0,0 l/m 0,00 h 0,00 h 4 W/m 10,9 km/h (2 Bft) 97,15 %
13.08.2016 06:00 15,0 C 15,0 C 13,2 C 95 % 7 lf 1021,0 hPa 0,0 l/m 0,37 h 0,00 h 20 W/m 12,5 km/h (3 Bft) 95,99 %
13.08.2016 07:00 14,9 C 15,5 C 13,5 C 93 % 2 lf 1021,3 hPa 0,0 l/m 1,00 h 0,00 h 126 W/m 14,8 km/h (3 Bft) 94,59 %
13.08.2016 08:00 15,7 C 17,0 C 14,8 C 91 % 1 lf 1021,5 hPa 0,0 l/m 1,00 h 0,00 h 293 W/m 19,6 km/h (3 Bft) 96,22 %
13.08.2016 09:00 17,5 C 24,2 C 17,5 C 88 % 0 lf 1021,6 hPa 0,0 l/m 1,00 h 0,00 h 460 W/m 18,9 km/h (3 Bft) 96,94 %
13.08.2016 10:00 19,3 C 25,9 C 22,2 C 84 % 0 lf 1021,5 hPa 0,0 l/m 0,93 h 0,00 h 498 W/m 16,8 km/h (3 Bft) 95,23 %
13.08.2016 11:00 20,4 C 25,5 C 22,7 C 81 % 0 lf 1021,5 hPa 0,0 l/m 0,80 h 0,00 h 491 W/m 19,3 km/h (3 Bft) 96,01 %
13.08.2016 12:00 21,5 C 29,2 C 24,6 C 77 % 0 lf 1021,6 hPa 0,0 l/m 0,83 h 0,00 h 665 W/m 21,6 km/h (4 Bft) 96,03 %
13.08.2016 13:00 22,2 C 29,7 C 23,6 C 73 % 0 lf 1021,8 hPa 0,0 l/m 0,97 h 0,00 h 1008 W/m 21,1 km/h (4 Bft) 95,17 %
13.08.2016 14:00 23,1 C 29,7 C 27,0 C 71 % 0 lf 1021,7 hPa 0,0 l/m 0,80 h 0,00 h 761 W/m 18,6 km/h (3 Bft) 97,44 %
13.08.2016 15:00 23,0 C 27,8 C 26,0 C 70 % 0 lf 1021,5 hPa 0,0 l/m 0,43 h 0,00 h 452 W/m 17,0 km/h (3 Bft) 94,23 %
13.08.2016 16:00 23,4 C 26,6 C 24,8 C 69 % 0 lf 1021,4 hPa 0,0 l/m 0,40 h 0,00 h 336 W/m 15,5 km/h (3 Bft) 97,72 %
13.08.2016 17:00 23,3 C 25,6 C 23,5 C 70 % 0 lf 1021,2 hPa 0,0 l/m 0,63 h 0,00 h 334 W/m 15,1 km/h (3 Bft) 95,23 %
13.08.2016 18:00 23,2 C 24,2 C 22,6 C 70 % 0 lf 1021,2 hPa 0,0 l/m 0,37 h 0,00 h 200 W/m 12,8 km/h (3 Bft) 96,66 %
13.08.2016 19:00 22,7 C 23,1 C 21,0 C 71 % 0 lf 1021,3 hPa 0,0 l/m 0,87 h 0,00 h 140 W/m 11,4 km/h (2 Bft) 96,36 %
13.08.2016 20:00 21,8 C 20,4 C 18,1 C 75 % 0 lf 1021,3 hPa 0,0 l/m 0,57 h 0,00 h 36 W/m 2,4 km/h (1 Bft) 95,37 %
13.08.2016 21:00 20,0 C 17,9 C 15,8 C 81 % 1 lf 1021,5 hPa 0,0 l/m 0,00 h 0,00 h 6 W/m 0,0 km/h (0 Bft) 96,00 %
13.08.2016 22:00 18,3 C 16,2 C 14,7 C 86 % 2 lf 1021,5 hPa 0,0 l/m 0,00 h 0,00 h 5 W/m 0,0 km/h (0 Bft) 98,15 %
13.08.2016 23:00 17,0 C 15,1 C 13,9 C 89 % 7 lf 1021,6 hPa 0,0 l/m 0,00 h 0,00 h 2 W/m 1,0 km/h (0 Bft) 94,23 %
14.08.2016 00:00 16,1 C 15,1 C 13,9 C 91 % 13 lf 1021,7 hPa 0,0 l/m 0,00 h 0,00 h 0 W/m 0,1 km/h (0 Bft) 95,34 %
14.08.2016 01:00 15,7 C 14,8 C 13,6 C 92 % 15 lf 1021,8 hPa 0,0 l/m 0,00 h 0,00 h 0 W/m 0,0 km/h (0 Bft) 97,01 %
14.08.2016 02:00 15,4 C 14,7 C 13,5 C 93 % 15 lf 1021,7 hPa 0,0 l/m 0,00 h 0,00 h 0 W/m 0,0 km/h (0 Bft) 96,79 %
14.08.2016 03:00 15,0 C 14,2 C 13,0 C 93 % 15 lf 1021,5 hPa 0,0 l/m 0,00 h 0,00 h 0 W/m 0,0 km/h (0 Bft) 94,23 %
14.08.2016 04:00 14,8 C 13,8 C 12,8 C 94 % 15 lf 1021,5 hPa 0,0 l/m 0,00 h 0,00 h 0 W/m 0,0 km/h (0 Bft) 97,35 %
14.08.2016 05:00 14,4 C 13,3 C 12,2 C 94 % 15 lf 1021,5 hPa 0,0 l/m 0,00 h 0,00 h 5 W/m 0,0 km/h (0 Bft) 95,73 %
14.08.2016 06:00 14,0 C 13,4 C 12,3 C 95 % 15 lf 1021,5 hPa 0,0 l/m 0,17 h 0,00 h 18 W/m 0,0 km/h (0 Bft) 97,50 %
14.08.2016 07:00 14,3 C 14,7 C 13,5 C 96 % 15 lf 1021,8 hPa 0,0 l/m 0,00 h 0,00 h 68 W/m 0,0 km/h (0 Bft) 94,87 %
14.08.2016 08:00 15,7 C 18,1 C 16,3 C 97 % 8 lf 1022,1 hPa 0,0 l/m 0,43 h 0,00 h 180 W/m 0,0 km/h (0 Bft) 95,23 %
14.08.2016 09:00 17,4 C 24,4 C 19,5 C 98 % 0 lf 1022,3 hPa 0,0 l/m 1,00 h 0,00 h 366 W/m 0,0 km/h (0 Bft) 96,58 %
14.08.2016 10:00 19,6 C 24,6 C 21,8 C 92 % 0 lf 1022,5 hPa 0,0 l/m 0,83 h 0,00 h 331 W/m 0,0 km/h (0 Bft) 96,58 %
14.08.2016 11:00 20,6 C 24,7 C 22,0 C 84 % 0 lf 1022,6 hPa 0,0 l/m 0,70 h 0,00 h 369 W/m 11,4 km/h (2 Bft) 93,95 %
14.08.2016 12:00 21,2 C 27,7 C 23,4 C 81 % 0 lf 1022,7 hPa 0,0 l/m 1,00 h 0,00 h 545 W/m 12,6 km/h (3 Bft) 97,22 %
14.08.2016 13:00 22,6 C 30,2 C 23,9 C 75 % 0 lf 1022,5 hPa 0,0 l/m 0,70 h 0,00 h 652 W/m 11,7 km/h (2 Bft) 95,58 %
14.08.2016 14:00 23,3 C 31,9 C 26,9 C 69 % 0 lf 1022,3 hPa 0,0 l/m 0,93 h 0,00 h 714 W/m 12,9 km/h (3 Bft) 96,58 %
14.08.2016 15:00 24,1 C 29,8 C 27,0 C 63 % 0 lf 1022,2 hPa 0,0 l/m 0,73 h 0,00 h 563 W/m 16,6 km/h (3 Bft) 95,09 %
14.08.2016 16:00 23,2 C 27,6 C 24,5 C 64 % 0 lf 1022,2 hPa 0,0 l/m 0,53 h 0,00 h 454 W/m 14,1 km/h (3 Bft) 97,65 %
14.08.2016 17:00 23,1 C 25,7 C 23,1 C 64 % 0 lf 1022,2 hPa 0,0 l/m 0,50 h 0,00 h 285 W/m 14,8 km/h (3 Bft) 95,37 %
14.08.2016 18:00 22,3 C 23,1 C 21,1 C 66 % 0 lf 1022,4 hPa 0,0 l/m 0,37 h 0,00 h 174 W/m 16,0 km/h (3 Bft) 95,23 %
14.08.2016 19:00 21,6 C 21,8 C 20,0 C 68 % 0 lf 1022,6 hPa 0,0 l/m 0,73 h 0,00 h 115 W/m 14,2 km/h (3 Bft) 96,80 %
14.08.2016 20:00 20,5 C 19,7 C 18,1 C 71 % 0 lf 1022,8 hPa 0,0 l/m 0,10 h 0,00 h 26 W/m 10,2 km/h (2 Bft) 96,58 %
14.08.2016 21:00 19,1 C 17,6 C 16,2 C 75 % 0 lf 1023,2 hPa 0,0 l/m 0,00 h 0,00 h 5 W/m 7,1 km/h (2 Bft) 93,09 %
14.08.2016 22:00 17,7 C 16,4 C 15,1 C 80 % 0 lf 1023,6 hPa 0,0 l/m 0,00 h 0,00 h 0 W/m 8,1 km/h (2 Bft) 97,43 %
14.08.2016 23:00 16,6 C 15,1 C 13,9 C 83 % 0 lf 1023,6 hPa 0,0 l/m 0,00 h 0,00 h 0 W/m 6,5 km/h (2 Bft) 97,15 %
Min-Datum _ 11.08.16 11.08.16 11.08.16 09.08.16 08.08.16 08.08.16 - - - - 08.08.16 13.08.16
_ Min-Zeit 05:12 04:05 03:36 13:54 00:00 04:44 - - - - 21:28 04:06
Minimum _ 8,2 C 7,2 C 6,7 C 54 % 0 lf 1018,2 hPa - - - - 0,0 km/h (0 Bft) 4,76 %
Max-Datum _ 14.08.16 14.08.16 14.08.16 12.08.16 09.08.16 14.08.16 11.08.16 08.08.16 08.08.16 13.08.16 09.08.16 08.08.16
_ Max-Zeit 15:18 15:12 15:10 09:54 17:32 22:50 17:10 06:22 00:38 13:44 14:34 00:22
Maximum _ 24,6 C 35,0 C 33,3 C 100 % 15 lf 1023,7 hPa 1,6 l/m 0,03 h 0,03 h 1573 W/m 46,0 km/h
W-NW (6 Bft)
100,00 %
Durchschnitt _ 16,6 C 17,8 C 15,9 C 84 % 5 lf 1021,1 hPa #9,2 l/m #49:56 h #16:52 h 231 W/m 12,0 km/h (2 Bft) 95,96 %
© 2016 W. Hausmann